sensor_id;sensor_type;location;lat;lon;timestamp;pressure;altitude;pressure_sealevel;temperature;humidity
73821;BME280;62150;43.582;1.456;2023-02-15T04:33:01;101006.38;;;13.07;100.00
73821;BME280;62150;43.582;1.456;2023-02-15T04:35:29;101010.88;;;13.25;100.00
73821;BME280;62150;43.582;1.456;2023-02-15T04:37:57;101019.81;;;13.40;100.00
73821;BME280;62150;43.582;1.456;2023-02-15T04:40:25;101016.88;;;13.26;100.00
73821;BME280;62150;43.582;1.456;2023-02-15T04:42:52;101014.00;;;13.10;100.00
73821;BME280;62150;43.582;1.456;2023-02-15T04:45:20;101015.41;;;12.94;100.00
73821;BME280;62150;43.582;1.456;2023-02-15T04:47:47;101023.22;;;13.17;100.00
73821;BME280;62150;43.582;1.456;2023-02-15T04:50:17;101023.41;;;12.61;100.00
73821;BME280;62150;43.582;1.456;2023-02-15T04:52:44;101028.38;;;12.92;100.00
73821;BME280;62150;43.582;1.456;2023-02-15T04:55:12;101017.13;;;12.70;100.00
73821;BME280;62150;43.582;1.456;2023-02-15T04:57:40;101018.06;;;12.67;100.00
73821;BME280;62150;43.582;1.456;2023-02-15T05:00:08;101017.63;;;12.55;100.00
73821;BME280;62150;43.582;1.456;2023-02-15T05:02:36;101016.47;;;12.63;100.00
73821;BME280;62150;43.582;1.456;2023-02-15T05:05:04;101016.63;;;12.59;100.00
73821;BME280;62150;43.582;1.456;2023-02-15T05:07:33;101015.41;;;12.44;100.00
73821;BME280;62150;43.582;1.456;2023-02-15T05:10:00;101017.53;;;12.83;100.00
73821;BME280;62150;43.582;1.456;2023-02-15T05:12:28;101018.81;;;12.71;100.00
73821;BME280;62150;43.582;1.456;2023-02-15T05:14:55;101015.78;;;12.32;100.00
73821;BME280;62150;43.582;1.456;2023-02-15T05:17:23;101024.81;;;12.45;100.00
73821;BME280;62150;43.582;1.456;2023-02-15T05:19:50;101016.53;;;12.35;100.00
73821;BME280;62150;43.582;1.456;2023-02-15T05:22:18;101011.50;;;12.32;100.00
73821;BME280;62150;43.582;1.456;2023-02-15T05:24:47;101014.34;;;11.97;100.00
73821;BME280;62150;43.582;1.456;2023-02-15T05:27:32;101011.06;;;12.46;100.00
73821;BME280;62150;43.582;1.456;2023-02-15T05:30:16;101013.50;;;12.23;100.00
73821;BME280;62150;43.582;1.456;2023-02-15T05:32:44;101013.03;;;12.12;100.00
73821;BME280;62150;43.582;1.456;2023-02-15T05:35:13;101018.72;;;11.93;100.00
73821;BME280;62150;43.582;1.456;2023-02-15T05:37:41;101019.41;;;12.26;100.00
73821;BME280;62150;43.582;1.456;2023-02-15T05:40:11;101016.69;;;12.04;100.00
73821;BME280;62150;43.582;1.456;2023-02-15T05:42:38;101020.06;;;12.06;100.00
73821;BME280;62150;43.582;1.456;2023-02-15T05:45:07;101018.22;;;12.36;100.00
73821;BME280;62150;43.582;1.456;2023-02-15T05:47:34;101018.06;;;12.15;100.00
73821;BME280;62150;43.582;1.456;2023-02-15T05:50:02;101016.47;;;11.83;100.00
73821;BME280;62150;43.582;1.456;2023-02-15T05:52:29;101013.81;;;12.40;100.00
73821;BME280;62150;43.582;1.456;2023-02-15T05:54:57;101022.56;;;12.08;100.00
73821;BME280;62150;43.582;1.456;2023-02-15T05:57:27;101024.50;;;12.28;100.00
73821;BME280;62150;43.582;1.456;2023-02-15T05:59:55;101023.50;;;12.05;100.00
73821;BME280;62150;43.582;1.456;2023-02-15T06:02:22;101025.97;;;12.36;100.00
73821;BME280;62150;43.582;1.456;2023-02-15T06:04:50;101022.53;;;12.36;100.00
73821;BME280;62150;43.582;1.456;2023-02-15T06:07:17;101020.97;;;12.04;100.00
73821;BME280;62150;43.582;1.456;2023-02-15T06:09:45;101024.00;;;12.17;100.00
73821;BME280;62150;43.582;1.456;2023-02-15T06:12:12;101034.78;;;12.01;100.00
73821;BME280;62150;43.582;1.456;2023-02-15T06:14:41;101039.41;;;12.18;100.00
73821;BME280;62150;43.582;1.456;2023-02-15T06:17:09;101025.03;;;12.13;100.00
73821;BME280;62150;43.582;1.456;2023-02-15T06:19:36;101030.94;;;12.15;100.00
73821;BME280;62150;43.582;1.456;2023-02-15T06:22:04;101033.94;;;12.29;100.00
73821;BME280;62150;43.582;1.456;2023-02-15T06:24:32;101033.47;;;12.16;100.00
73821;BME280;62150;43.582;1.456;2023-02-15T06:27:00;101034.72;;;12.04;100.00
73821;BME280;62150;43.582;1.456;2023-02-15T06:29:27;101038.50;;;11.93;100.00
73821;BME280;62150;43.582;1.456;2023-02-15T06:31:56;101039.03;;;11.74;100.00
73821;BME280;62150;43.582;1.456;2023-02-15T06:34:24;101045.28;;;11.95;100.00
73821;BME280;62150;43.582;1.456;2023-02-15T06:36:51;101038.88;;;11.79;100.00
73821;BME280;62150;43.582;1.456;2023-02-15T06:39:19;101045.94;;;11.72;100.00
73821;BME280;62150;43.582;1.456;2023-02-15T06:41:46;101048.13;;;11.86;100.00
73821;BME280;62150;43.582;1.456;2023-02-15T06:44:14;101044.78;;;11.83;100.00
73821;BME280;62150;43.582;1.456;2023-02-15T06:46:41;101049.72;;;11.90;100.00
73821;BME280;62150;43.582;1.456;2023-02-15T06:51:42;101057.53;;;11.87;100.00
73821;BME280;62150;43.582;1.456;2023-02-15T06:54:09;101059.19;;;11.90;100.00
73821;BME280;62150;43.582;1.456;2023-02-15T06:56:37;101060.72;;;11.66;100.00
73821;BME280;62150;43.582;1.456;2023-02-15T06:59:05;101065.22;;;11.89;100.00
73821;BME280;62150;43.582;1.456;2023-02-15T07:01:32;101062.16;;;12.05;100.00
73821;BME280;62150;43.582;1.456;2023-02-15T07:04:00;101062.22;;;11.73;100.00
73821;BME280;62150;43.582;1.456;2023-02-15T07:06:31;101065.44;;;12.11;100.00
73821;BME280;62150;43.582;1.456;2023-02-15T07:09:00;101071.84;;;11.66;100.00
73821;BME280;62150;43.582;1.456;2023-02-15T07:11:28;101072.44;;;12.05;100.00
73821;BME280;62150;43.582;1.456;2023-02-15T07:14:13;101082.56;;;12.12;100.00
73821;BME280;62150;43.582;1.456;2023-02-15T07:16:40;101084.94;;;11.90;100.00
73821;BME280;62150;43.582;1.456;2023-02-15T07:19:08;101086.03;;;12.11;100.00
73821;BME280;62150;43.582;1.456;2023-02-15T07:21:36;101091.75;;;11.91;100.00
73821;BME280;62150;43.582;1.456;2023-02-15T07:24:05;101093.91;;;12.34;100.00
73821;BME280;62150;43.582;1.456;2023-02-15T07:26:33;101098.16;;;12.35;100.00
73821;BME280;62150;43.582;1.456;2023-02-15T07:29:01;101099.53;;;12.47;100.00
73821;BME280;62150;43.582;1.456;2023-02-15T07:31:29;101105.09;;;12.33;100.00
73821;BME280;62150;43.582;1.456;2023-02-15T07:33:56;101105.00;;;12.62;100.00
73821;BME280;62150;43.582;1.456;2023-02-15T07:36:24;101106.50;;;12.69;100.00
73821;BME280;62150;43.582;1.456;2023-02-15T07:38:51;101113.72;;;12.58;100.00
73821;BME280;62150;43.582;1.456;2023-02-15T07:41:20;101109.47;;;12.84;100.00
73821;BME280;62150;43.582;1.456;2023-02-15T07:43:49;101109.03;;;12.45;100.00
73821;BME280;62150;43.582;1.456;2023-02-15T07:46:17;101114.47;;;12.35;100.00
73821;BME280;62150;43.582;1.456;2023-02-15T07:48:46;101123.28;;;12.55;100.00
73821;BME280;62150;43.582;1.456;2023-02-15T07:51:14;101113.25;;;12.73;100.00
73821;BME280;62150;43.582;1.456;2023-02-15T07:53:43;101121.66;;;13.05;100.00
73821;BME280;62150;43.582;1.456;2023-02-15T07:56:12;101129.16;;;12.86;100.00
73821;BME280;62150;43.582;1.456;2023-02-15T07:58:41;101125.94;;;12.80;100.00
73821;BME280;62150;43.582;1.456;2023-02-15T08:01:18;101121.88;;;12.72;100.00
73821;BME280;62150;43.582;1.456;2023-02-15T08:03:46;101123.81;;;12.66;100.00
73821;BME280;62150;43.582;1.456;2023-02-15T08:06:14;101124.38;;;12.48;100.00
73821;BME280;62150;43.582;1.456;2023-02-15T08:08:42;101125.63;;;12.62;100.00
73821;BME280;62150;43.582;1.456;2023-02-15T08:11:16;101130.41;;;13.01;100.00
73821;BME280;62150;43.582;1.456;2023-02-15T08:13:57;101122.78;;;12.71;100.00
73821;BME280;62150;43.582;1.456;2023-02-15T08:16:27;101123.47;;;12.77;100.00
73821;BME280;62150;43.582;1.456;2023-02-15T08:18:56;101126.56;;;12.60;100.00
73821;BME280;62150;43.582;1.456;2023-02-15T08:21:26;101133.75;;;12.78;100.00
73821;BME280;62150;43.582;1.456;2023-02-15T08:23:55;101117.75;;;12.93;100.00
73821;BME280;62150;43.582;1.456;2023-02-15T08:26:23;101129.00;;;12.91;100.00
73821;BME280;62150;43.582;1.456;2023-02-15T08:28:51;101120.19;;;12.98;100.00
73821;BME280;62150;43.582;1.456;2023-02-15T08:31:20;101127.38;;;13.15;100.00
73821;BME280;62150;43.582;1.456;2023-02-15T08:33:49;101128.69;;;12.75;100.00
73821;BME280;62150;43.582;1.456;2023-02-15T08:36:18;101131.16;;;12.78;100.00
73821;BME280;62150;43.582;1.456;2023-02-15T08:38:46;101137.69;;;13.15;100.00
73821;BME280;62150;43.582;1.456;2023-02-15T08:41:15;101136.63;;;13.20;100.00
73821;BME280;62150;43.582;1.456;2023-02-15T08:43:46;101137.13;;;13.05;100.00
73821;BME280;62150;43.582;1.456;2023-02-15T08:46:15;101128.69;;;12.75;100.00
73821;BME280;62150;43.582;1.456;2023-02-15T08:48:44;101133.16;;;13.21;100.00
73821;BME280;62150;43.582;1.456;2023-02-15T08:51:14;101145.56;;;13.10;100.00
73821;BME280;62150;43.582;1.456;2023-02-15T08:53:44;101144.72;;;13.36;100.00
73821;BME280;62150;43.582;1.456;2023-02-15T08:56:12;101140.84;;;13.23;100.00
73821;BME280;62150;43.582;1.456;2023-02-15T08:58:39;101142.13;;;13.36;100.00
73821;BME280;62150;43.582;1.456;2023-02-15T09:01:11;101151.72;;;13.32;100.00
73821;BME280;62150;43.582;1.456;2023-02-15T09:03:39;101137.59;;;13.43;100.00
73821;BME280;62150;43.582;1.456;2023-02-15T09:06:08;101141.38;;;14.04;100.00
73821;BME280;62150;43.582;1.456;2023-02-15T09:08:36;101140.78;;;13.51;100.00
73821;BME280;62150;43.582;1.456;2023-02-15T09:11:09;101143.47;;;13.48;100.00
73821;BME280;62150;43.582;1.456;2023-02-15T09:13:37;101142.69;;;13.92;100.00
73821;BME280;62150;43.582;1.456;2023-02-15T09:16:06;101149.53;;;13.70;100.00
73821;BME280;62150;43.582;1.456;2023-02-15T09:18:36;101157.38;;;13.67;100.00
73821;BME280;62150;43.582;1.456;2023-02-15T09:21:10;101161.19;;;13.82;100.00
73821;BME280;62150;43.582;1.456;2023-02-15T09:23:39;101152.75;;;13.77;100.00
73821;BME280;62150;43.582;1.456;2023-02-15T09:26:09;101153.56;;;14.00;100.00
73821;BME280;62150;43.582;1.456;2023-02-15T09:28:36;101165.03;;;13.70;100.00
73821;BME280;62150;43.582;1.456;2023-02-15T09:31:09;101161.91;;;13.85;100.00
73821;BME280;62150;43.582;1.456;2023-02-15T09:33:37;101163.72;;;13.83;100.00
73821;BME280;62150;43.582;1.456;2023-02-15T09:36:12;101165.72;;;13.98;100.00
73821;BME280;62150;43.582;1.456;2023-02-15T09:38:42;101159.63;;;14.23;100.00
73821;BME280;62150;43.582;1.456;2023-02-15T09:41:35;101164.06;;;14.43;100.00
73821;BME280;62150;43.582;1.456;2023-02-15T09:44:15;101172.75;;;14.40;100.00
73821;BME280;62150;43.582;1.456;2023-02-15T09:46:59;101163.84;;;14.91;100.00
73821;BME280;62150;43.582;1.456;2023-02-15T09:49:37;101170.44;;;14.56;100.00
73821;BME280;62150;43.582;1.456;2023-02-15T09:52:33;101156.41;;;14.39;100.00
73821;BME280;62150;43.582;1.456;2023-02-15T09:55:28;101169.69;;;14.54;100.00
73821;BME280;62150;43.582;1.456;2023-02-15T09:58:07;101158.28;;;14.80;100.00
73821;BME280;62150;43.582;1.456;2023-02-15T10:00:46;101161.59;;;14.83;100.00
73821;BME280;62150;43.582;1.456;2023-02-15T10:03:29;101162.97;;;14.92;100.00
73821;BME280;62150;43.582;1.456;2023-02-15T10:09:06;101158.94;;;14.63;100.00
73821;BME280;62150;43.582;1.456;2023-02-15T10:11:50;101172.91;;;14.81;100.00
73821;BME280;62150;43.582;1.456;2023-02-15T10:14:33;101172.88;;;15.02;100.00
73821;BME280;62150;43.582;1.456;2023-02-15T10:17:13;101169.25;;;14.86;100.00
73821;BME280;62150;43.582;1.456;2023-02-15T10:19:51;101170.44;;;15.20;100.00
73821;BME280;62150;43.582;1.456;2023-02-15T10:22:35;101166.09;;;15.40;100.00
73821;BME280;62150;43.582;1.456;2023-02-15T10:25:23;101165.47;;;14.73;100.00
73821;BME280;62150;43.582;1.456;2023-02-15T10:28:02;101176.91;;;15.09;100.00
73821;BME280;62150;43.582;1.456;2023-02-15T10:30:39;101173.94;;;15.39;100.00
73821;BME280;62150;43.582;1.456;2023-02-15T10:33:15;101182.94;;;15.51;100.00
73821;BME280;62150;43.582;1.456;2023-02-15T10:35:56;101188.25;;;15.68;100.00
73821;BME280;62150;43.582;1.456;2023-02-15T10:38:33;101180.22;;;15.54;100.00
73821;BME280;62150;43.582;1.456;2023-02-15T10:41:15;101179.69;;;15.66;100.00
73821;BME280;62150;43.582;1.456;2023-02-15T10:43:57;101178.66;;;15.70;100.00
73821;BME280;62150;43.582;1.456;2023-02-15T10:46:40;101177.25;;;15.63;100.00
73821;BME280;62150;43.582;1.456;2023-02-15T10:49:32;101193.09;;;15.75;100.00
73821;BME280;62150;43.582;1.456;2023-02-15T10:52:14;101176.72;;;15.75;100.00
73821;BME280;62150;43.582;1.456;2023-02-15T10:54:49;101170.88;;;15.90;100.00
73821;BME280;62150;43.582;1.456;2023-02-15T10:57:29;101185.84;;;16.02;100.00
73821;BME280;62150;43.582;1.456;2023-02-15T11:00:11;101185.84;;;15.84;100.00
73821;BME280;62150;43.582;1.456;2023-02-15T11:03:05;101174.59;;;15.64;100.00
73821;BME280;62150;43.582;1.456;2023-02-15T11:05:43;101164.59;;;15.94;100.00
73821;BME280;62150;43.582;1.456;2023-02-15T11:08:16;101172.75;;;16.05;100.00
73821;BME280;62150;43.582;1.456;2023-02-15T11:10:47;101162.59;;;15.82;100.00
73821;BME280;62150;43.582;1.456;2023-02-15T11:13:18;101157.84;;;15.92;100.00
73821;BME280;62150;43.582;1.456;2023-02-15T11:15:52;101156.75;;;16.33;100.00
73821;BME280;62150;43.582;1.456;2023-02-15T11:18:25;101158.59;;;16.13;100.00
73821;BME280;62150;43.582;1.456;2023-02-15T11:20:58;101150.94;;;16.47;100.00
73821;BME280;62150;43.582;1.456;2023-02-15T11:23:29;101154.88;;;16.37;100.00
73821;BME280;62150;43.582;1.456;2023-02-15T11:25:58;101152.84;;;16.43;100.00
73821;BME280;62150;43.582;1.456;2023-02-15T11:28:31;101164.72;;;16.66;100.00
73821;BME280;62150;43.582;1.456;2023-02-15T11:31:09;101162.94;;;16.86;100.00
73821;BME280;62150;43.582;1.456;2023-02-15T11:33:42;101162.94;;;16.86;100.00
73821;BME280;62150;43.582;1.456;2023-02-15T11:36:15;101161.72;;;16.57;100.00
73821;BME280;62150;43.582;1.456;2023-02-15T11:38:46;101156.91;;;16.49;100.00
73821;BME280;62150;43.582;1.456;2023-02-15T11:41:19;101155.25;;;16.65;100.00
73821;BME280;62150;43.582;1.456;2023-02-15T11:43:53;101164.16;;;16.79;100.00
73821;BME280;62150;43.582;1.456;2023-02-15T11:46:22;101155.84;;;17.06;100.00
73821;BME280;62150;43.582;1.456;2023-02-15T11:48:50;101147.38;;;17.03;100.00
73821;BME280;62150;43.582;1.456;2023-02-15T11:51:20;101158.69;;;16.66;100.00
73821;BME280;62150;43.582;1.456;2023-02-15T11:53:49;101158.78;;;16.64;100.00
73821;BME280;62150;43.582;1.456;2023-02-15T11:56:18;101151.38;;;16.38;100.00
73821;BME280;62150;43.582;1.456;2023-02-15T11:58:49;101151.22;;;16.41;100.00
73821;BME280;62150;43.582;1.456;2023-02-15T12:01:24;101150.50;;;16.56;100.00
73821;BME280;62150;43.582;1.456;2023-02-15T12:03:56;101145.53;;;16.52;100.00
73821;BME280;62150;43.582;1.456;2023-02-15T12:06:28;101155.38;;;16.98;100.00
73821;BME280;62150;43.582;1.456;2023-02-15T12:09:05;101145.53;;;16.52;100.00
73821;BME280;62150;43.582;1.456;2023-02-15T12:11:37;101147.56;;;16.64;100.00
73821;BME280;62150;43.582;1.456;2023-02-15T12:14:06;101133.56;;;16.30;100.00
73821;BME280;62150;43.582;1.456;2023-02-15T12:16:42;101144.63;;;16.89;100.00
73821;BME280;62150;43.582;1.456;2023-02-15T12:19:28;101142.16;;;17.03;100.00
73821;BME280;62150;43.582;1.456;2023-02-15T12:21:56;101136.28;;;16.82;100.00
73821;BME280;62150;43.582;1.456;2023-02-15T12:24:27;101131.56;;;17.58;100.00
73821;BME280;62150;43.582;1.456;2023-02-15T12:27:01;101133.84;;;17.64;100.00
73821;BME280;62150;43.582;1.456;2023-02-15T12:29:31;101130.84;;;17.38;100.00
73821;BME280;62150;43.582;1.456;2023-02-15T12:32:04;101136.44;;;17.31;100.00
73821;BME280;62150;43.582;1.456;2023-02-15T12:34:37;101126.50;;;17.72;100.00
73821;BME280;62150;43.582;1.456;2023-02-15T12:37:17;101130.31;;;18.14;100.00
73821;BME280;62150;43.582;1.456;2023-02-15T12:39:53;101125.38;;;18.25;100.00
73821;BME280;62150;43.582;1.456;2023-02-15T12:42:22;101129.25;;;17.69;100.00
73821;BME280;62150;43.582;1.456;2023-02-15T12:44:59;101121.09;;;17.92;100.00
73821;BME280;62150;43.582;1.456;2023-02-15T12:47:29;101107.50;;;18.03;100.00
73821;BME280;62150;43.582;1.456;2023-02-15T12:50:11;101107.34;;;17.90;100.00
73821;BME280;62150;43.582;1.456;2023-02-15T12:52:45;101113.38;;;18.22;100.00
73821;BME280;62150;43.582;1.456;2023-02-15T12:55:21;101103.88;;;18.05;100.00
73821;BME280;62150;43.582;1.456;2023-02-15T12:57:49;101108.00;;;18.09;100.00
73821;BME280;62150;43.582;1.456;2023-02-15T13:00:32;101109.50;;;17.49;100.00
73821;BME280;62150;43.582;1.456;2023-02-15T13:03:02;101102.75;;;17.95;100.00
73821;BME280;62150;43.582;1.456;2023-02-15T13:05:34;101110.22;;;18.01;100.00
73821;BME280;62150;43.582;1.456;2023-02-15T13:08:08;101102.78;;;17.78;100.00
73821;BME280;62150;43.582;1.456;2023-02-15T13:10:39;101102.94;;;17.75;100.00
73821;BME280;62150;43.582;1.456;2023-02-15T13:13:10;101109.78;;;17.60;100.00
73821;BME280;62150;43.582;1.456;2023-02-15T13:15:40;101103.16;;;18.19;98.78
73821;BME280;62150;43.582;1.456;2023-02-15T13:18:16;101110.03;;;18.36;96.99
73821;BME280;62150;43.582;1.456;2023-02-15T13:20:44;101107.75;;;18.30;99.01
73821;BME280;62150;43.582;1.456;2023-02-15T13:23:24;101101.81;;;18.28;95.80
73821;BME280;62150;43.582;1.456;2023-02-15T13:25:55;101096.63;;;17.96;94.25
73821;BME280;62150;43.582;1.456;2023-02-15T13:28:31;101100.28;;;18.08;97.25
73821;BME280;62150;43.582;1.456;2023-02-15T13:30:59;101097.78;;;18.22;95.14
73821;BME280;62150;43.582;1.456;2023-02-15T13:33:32;101103.19;;;18.49;91.67
73821;BME280;62150;43.582;1.456;2023-02-15T13:36:08;101106.91;;;18.29;89.11
73821;BME280;62150;43.582;1.456;2023-02-15T13:39:02;101102.03;;;18.39;91.04
73821;BME280;62150;43.582;1.456;2023-02-15T13:41:33;101103.09;;;18.96;88.47
73821;BME280;62150;43.582;1.456;2023-02-15T13:44:11;101103.59;;;18.57;92.40
73821;BME280;62150;43.582;1.456;2023-02-15T13:46:52;101098.66;;;18.68;85.37
73821;BME280;62150;43.582;1.456;2023-02-15T13:49:34;101093.38;;;18.70;87.93
73821;BME280;62150;43.582;1.456;2023-02-15T13:52:11;101094.19;;;19.15;82.60
73821;BME280;62150;43.582;1.456;2023-02-15T13:58:03;101087.88;;;19.04;86.87
73821;BME280;62150;43.582;1.456;2023-02-15T14:00:39;101080.94;;;18.89;90.53
73821;BME280;62150;43.582;1.456;2023-02-15T14:03:39;101077.50;;;18.89;90.29
73821;BME280;62150;43.582;1.456;2023-02-15T14:09:13;101074.56;;;19.23;81.99
73821;BME280;62150;43.582;1.456;2023-02-15T14:11:50;101069.06;;;18.99;83.35
73821;BME280;62150;43.582;1.456;2023-02-15T14:14:42;101066.41;;;19.58;81.06
73821;BME280;62150;43.582;1.456;2023-02-15T14:17:21;101069.16;;;19.40;82.72
73821;BME280;62150;43.582;1.456;2023-02-15T14:19:54;101068.69;;;19.05;82.71
73821;BME280;62150;43.582;1.456;2023-02-15T14:22:32;101070.47;;;19.19;83.12
73821;BME280;62150;43.582;1.456;2023-02-15T14:25:17;101072.06;;;19.64;75.20
73821;BME280;62150;43.582;1.456;2023-02-15T14:27:56;101069.84;;;19.58;76.43
73821;BME280;62150;43.582;1.456;2023-02-15T14:30:31;101074.28;;;19.14;75.17
73821;BME280;62150;43.582;1.456;2023-02-15T14:33:03;101077.47;;;19.61;72.03
73821;BME280;62150;43.582;1.456;2023-02-15T14:35:33;101067.00;;;20.17;63.42
73821;BME280;62150;43.582;1.456;2023-02-15T14:38:07;101072.44;;;19.58;68.94
73821;BME280;62150;43.582;1.456;2023-02-15T14:40:48;101074.84;;;19.33;70.91
73821;BME280;62150;43.582;1.456;2023-02-15T14:43:42;101080.75;;;19.06;73.47
73821;BME280;62150;43.582;1.456;2023-02-15T14:46:20;101075.94;;;19.86;73.15
73821;BME280;62150;43.582;1.456;2023-02-15T14:48:53;101073.97;;;19.89;65.55
73821;BME280;62150;43.582;1.456;2023-02-15T14:51:54;101075.06;;;19.72;63.07
73821;BME280;62150;43.582;1.456;2023-02-15T14:54:55;101086.09;;;19.76;64.29
73821;BME280;62150;43.582;1.456;2023-02-15T14:57:33;101073.28;;;19.30;73.28
73821;BME280;62150;43.582;1.456;2023-02-15T15:02:48;101072.81;;;19.38;73.83
73821;BME280;62150;43.582;1.456;2023-02-15T15:05:19;101077.88;;;19.11;71.32
73821;BME280;62150;43.582;1.456;2023-02-15T15:07:50;101087.94;;;20.02;64.50
73821;BME280;62150;43.582;1.456;2023-02-15T15:10:45;101082.00;;;19.86;67.58
73821;BME280;62150;43.582;1.456;2023-02-15T15:13:38;101093.34;;;19.99;62.57
73821;BME280;62150;43.582;1.456;2023-02-15T15:16:50;101089.00;;;20.13;62.52
73821;BME280;62150;43.582;1.456;2023-02-15T15:22:34;101095.41;;;19.80;64.49
73821;BME280;62150;43.582;1.456;2023-02-15T15:25:08;101083.25;;;19.52;69.52
73821;BME280;62150;43.582;1.456;2023-02-15T15:27:49;101096.00;;;19.57;68.41
73821;BME280;62150;43.582;1.456;2023-02-15T15:30:48;101090.44;;;20.31;63.24
73821;BME280;62150;43.582;1.456;2023-02-15T15:36:59;101084.91;;;19.39;73.50
73821;BME280;62150;43.582;1.456;2023-02-15T15:42:35;101081.19;;;19.71;64.36
73821;BME280;62150;43.582;1.456;2023-02-15T15:45:38;101086.56;;;19.83;68.74
73821;BME280;62150;43.582;1.456;2023-02-15T15:48:30;101088.78;;;19.89;66.44
73821;BME280;62150;43.582;1.456;2023-02-15T15:51:00;101095.72;;;18.89;72.38
73821;BME280;62150;43.582;1.456;2023-02-15T15:53:32;101100.03;;;19.18;70.88
73821;BME280;62150;43.582;1.456;2023-02-15T15:56:04;101101.19;;;19.28;71.33
73821;BME280;62150;43.582;1.456;2023-02-15T15:58:34;101094.84;;;19.18;70.28
73821;BME280;62150;43.582;1.456;2023-02-15T16:01:06;101100.34;;;18.69;75.03
73821;BME280;62150;43.582;1.456;2023-02-15T16:03:35;101092.38;;;18.87;76.37
73821;BME280;62150;43.582;1.456;2023-02-15T16:06:03;101103.41;;;18.76;75.18
73821;BME280;62150;43.582;1.456;2023-02-15T16:08:35;101103.69;;;18.56;76.01
73821;BME280;62150;43.582;1.456;2023-02-15T16:11:12;101103.53;;;18.43;80.36
73821;BME280;62150;43.582;1.456;2023-02-15T16:13:41;101113.06;;;19.04;74.04
73821;BME280;62150;43.582;1.456;2023-02-15T16:16:12;101111.28;;;18.74;79.15
73821;BME280;62150;43.582;1.456;2023-02-15T16:18:41;101116.13;;;19.11;76.13
73821;BME280;62150;43.582;1.456;2023-02-15T16:21:16;101117.88;;;19.10;76.77
73821;BME280;62150;43.582;1.456;2023-02-15T16:24:04;101121.69;;;18.90;76.17
73821;BME280;62150;43.582;1.456;2023-02-15T16:26:49;101121.88;;;18.71;79.45
73821;BME280;62150;43.582;1.456;2023-02-15T16:29:29;101123.09;;;18.50;81.70
73821;BME280;62150;43.582;1.456;2023-02-15T16:32:04;101122.19;;;18.20;85.92
73821;BME280;62150;43.582;1.456;2023-02-15T16:34:33;101122.88;;;18.23;86.16
73821;BME280;62150;43.582;1.456;2023-02-15T16:37:14;101123.69;;;18.24;85.86
73821;BME280;62150;43.582;1.456;2023-02-15T16:39:43;101136.56;;;18.72;82.28
73821;BME280;62150;43.582;1.456;2023-02-15T16:42:11;101136.03;;;17.89;88.00
73821;BME280;62150;43.582;1.456;2023-02-15T16:44:41;101132.22;;;18.57;85.98
73821;BME280;62150;43.582;1.456;2023-02-15T16:47:16;101123.75;;;17.75;91.48
73821;BME280;62150;43.582;1.456;2023-02-15T16:49:47;101127.38;;;18.04;91.79
73821;BME280;62150;43.582;1.456;2023-02-15T16:52:20;101132.84;;;17.99;89.77
73821;BME280;62150;43.582;1.456;2023-02-15T16:54:54;101138.47;;;18.23;91.08
73821;BME280;62150;43.582;1.456;2023-02-15T16:57:24;101139.47;;;18.05;88.88
73821;BME280;62150;43.582;1.456;2023-02-15T16:59:55;101148.56;;;17.48;93.04
73821;BME280;62150;43.582;1.456;2023-02-15T17:02:27;101136.19;;;17.86;94.42
73821;BME280;62150;43.582;1.456;2023-02-15T17:05:17;101147.63;;;17.49;96.48
73821;BME280;62150;43.582;1.456;2023-02-15T17:08:12;101147.50;;;17.00;99.99
73821;BME280;62150;43.582;1.456;2023-02-15T17:10:42;101151.47;;;16.72;100.00
73821;BME280;62150;43.582;1.456;2023-02-15T17:13:12;101153.25;;;16.53;100.00
73821;BME280;62150;43.582;1.456;2023-02-15T17:15:41;101149.75;;;16.54;100.00
73821;BME280;62150;43.582;1.456;2023-02-15T17:18:16;101152.13;;;16.59;100.00
73821;BME280;62150;43.582;1.456;2023-02-15T17:20:45;101146.31;;;16.54;100.00
73821;BME280;62150;43.582;1.456;2023-02-15T17:23:25;101150.38;;;16.40;100.00
73821;BME280;62150;43.582;1.456;2023-02-15T17:25:56;101147.47;;;15.92;100.00
73821;BME280;62150;43.582;1.456;2023-02-15T17:28:26;101149.63;;;15.82;100.00
73821;BME280;62150;43.582;1.456;2023-02-15T17:30:56;101162.31;;;15.88;100.00
73821;BME280;62150;43.582;1.456;2023-02-15T17:33:35;101160.06;;;15.81;100.00
73821;BME280;62150;43.582;1.456;2023-02-15T17:36:05;101156.63;;;15.99;100.00
73821;BME280;62150;43.582;1.456;2023-02-15T17:38:35;101158.13;;;15.86;100.00
73821;BME280;62150;43.582;1.456;2023-02-15T17:41:03;101173.19;;;15.57;100.00
73821;BME280;62150;43.582;1.456;2023-02-15T17:43:31;101181.75;;;15.78;100.00
73821;BME280;62150;43.582;1.456;2023-02-15T17:45:59;101176.88;;;16.09;100.00
73821;BME280;62150;43.582;1.456;2023-02-15T17:48:32;101188.50;;;15.62;100.00
73821;BME280;62150;43.582;1.456;2023-02-15T17:51:01;101190.25;;;15.82;100.00
73821;BME280;62150;43.582;1.456;2023-02-15T17:53:30;101180.84;;;15.38;100.00
73821;BME280;62150;43.582;1.456;2023-02-15T17:55:58;101187.13;;;15.33;100.00
73821;BME280;62150;43.582;1.456;2023-02-15T17:58:24;101184.09;;;15.23;100.00
73821;BME280;62150;43.582;1.456;2023-02-15T18:00:54;101187.13;;;15.33;100.00
73821;BME280;62150;43.582;1.456;2023-02-15T18:03:44;101191.34;;;15.15;100.00
73821;BME280;62150;43.582;1.456;2023-02-15T18:06:31;101190.31;;;15.19;100.00
73821;BME280;62150;43.582;1.456;2023-02-15T18:09:18;101182.72;;;15.57;100.00
73821;BME280;62150;43.582;1.456;2023-02-15T18:12:17;101187.06;;;15.56;100.00